createdAt,value
2023-01-28T02:05:38.197Z,3.60
2023-01-28T02:06:39.136Z,3.30
2023-01-28T02:07:39.214Z,3.40
2023-01-28T02:08:39.115Z,3.40
2023-01-28T02:09:39.134Z,3.40
2023-01-28T02:10:39.113Z,3.30
2023-01-28T02:11:39.110Z,3.20
2023-01-28T02:12:39.083Z,3.70
2023-01-28T02:13:39.071Z,3.30
2023-01-28T02:14:39.053Z,3.40
2023-01-28T02:15:39.048Z,3.50
2023-01-28T02:16:39.050Z,3.60
2023-01-28T02:17:39.038Z,3.50
2023-01-28T02:18:39.015Z,3.60
2023-01-28T02:19:38.991Z,3.40
2023-01-28T02:20:38.956Z,3.40
2023-01-28T02:21:38.962Z,3.80
2023-01-28T02:22:38.943Z,3.70
2023-01-28T02:23:38.937Z,3.90
2023-01-28T02:24:38.957Z,3.60
2023-01-28T02:25:38.922Z,3.60
2023-01-28T02:26:38.884Z,3.80
2023-01-28T02:27:38.905Z,3.40
2023-01-28T02:28:38.871Z,3.60
2023-01-28T02:29:38.913Z,3.60
2023-01-28T02:30:38.931Z,3.40
2023-01-28T02:31:38.968Z,3.80
2023-01-28T02:32:38.796Z,3.70
2023-01-28T02:33:38.842Z,3.80
2023-01-28T02:34:38.794Z,4.00
2023-01-28T02:35:38.805Z,3.90
2023-01-28T02:36:38.741Z,3.70
2023-01-28T02:37:38.756Z,4.30
2023-01-28T02:38:38.711Z,3.60
2023-01-28T02:39:38.730Z,3.90
2023-01-28T02:40:38.720Z,3.50
2023-01-28T02:41:38.714Z,3.50
2023-01-28T02:42:38.681Z,3.60
2023-01-28T02:43:38.678Z,3.40
2023-01-28T02:44:38.668Z,3.80
2023-01-28T02:45:38.679Z,3.40
2023-01-28T02:46:38.616Z,3.70
2023-01-28T02:47:38.667Z,3.80
2023-01-28T02:48:38.587Z,3.80
2023-01-28T02:49:38.632Z,3.30
2023-01-28T02:50:38.582Z,3.80
2023-01-28T02:51:38.575Z,3.80
2023-01-28T02:52:38.546Z,3.60
2023-01-28T02:53:38.571Z,4.30
2023-01-28T02:54:38.525Z,3.80
2023-01-28T02:55:38.520Z,3.40
2023-01-28T02:56:38.494Z,3.80
2023-01-28T02:57:38.493Z,4.20
2023-01-28T02:58:38.474Z,3.80
2023-01-28T02:59:38.463Z,3.60
2023-01-28T03:00:38.443Z,3.70
2023-01-28T03:01:38.507Z,3.90
2023-01-28T03:02:38.425Z,4.20
2023-01-28T03:03:38.444Z,3.80
2023-01-28T03:04:38.373Z,3.70
2023-01-28T03:05:38.426Z,3.90
2023-01-28T03:06:38.371Z,3.90
2023-01-28T03:07:38.377Z,4.00
2023-01-28T03:08:38.331Z,4.20
2023-01-28T03:09:38.349Z,3.50
2023-01-28T03:10:38.294Z,3.60
2023-01-28T03:11:38.313Z,4.10
2023-01-28T03:12:38.300Z,4.20
2023-01-28T03:13:38.286Z,3.90
2023-01-28T03:14:38.265Z,4.00
2023-01-28T03:15:38.327Z,4.00
2023-01-28T03:16:38.244Z,4.20
2023-01-28T03:17:38.214Z,4.00
2023-01-28T03:18:38.219Z,4.00
2023-01-28T03:19:38.211Z,4.00
2023-01-28T03:20:38.210Z,4.20
2023-01-28T03:21:38.177Z,3.80
2023-01-28T03:22:38.167Z,4.10
2023-01-28T03:23:38.133Z,3.80
2023-01-28T03:24:38.137Z,3.90
2023-01-28T03:25:38.134Z,3.70
2023-01-28T03:26:38.118Z,3.70
2023-01-28T03:27:38.080Z,4.10
2023-01-28T03:28:38.079Z,3.90
2023-01-28T03:29:38.662Z,4.10
2023-01-28T03:30:38.106Z,4.00
2023-01-28T03:31:38.067Z,4.20
2023-01-28T03:32:38.029Z,4.10
2023-01-28T03:33:38.015Z,4.00
2023-01-28T03:34:38.012Z,4.10
2023-01-28T03:35:37.999Z,4.50
2023-01-28T03:36:37.984Z,4.10
2023-01-28T03:37:37.963Z,4.10
2023-01-28T03:38:37.961Z,4.40
2023-01-28T03:39:37.950Z,4.60
2023-01-28T03:40:37.934Z,4.40
2023-01-28T03:41:37.926Z,4.50
2023-01-28T03:42:37.932Z,4.20
2023-01-28T03:43:37.909Z,4.50
2023-01-28T03:44:37.869Z,4.10
2023-01-28T03:45:37.849Z,4.30
2023-01-28T03:46:37.893Z,4.00
2023-01-28T03:47:37.830Z,4.80
2023-01-28T03:48:38.282Z,3.80
2023-01-28T03:49:37.804Z,4.40
2023-01-28T03:50:37.821Z,4.40
2023-01-28T03:51:37.774Z,4.30
2023-01-28T03:52:37.795Z,4.70
2023-01-28T03:53:37.736Z,4.80
2023-01-28T03:54:37.748Z,4.30
2023-01-28T03:55:37.748Z,4.50
2023-01-28T03:56:37.761Z,4.70
2023-01-28T03:57:37.685Z,4.70
2023-01-28T03:58:37.751Z,4.70
2023-01-28T03:59:37.685Z,5.00
2023-01-28T04:00:37.701Z,5.00
2023-01-28T04:01:37.662Z,5.00
2023-01-28T04:02:37.661Z,5.10
2023-01-28T04:03:37.633Z,5.10
2023-01-28T04:04:37.619Z,5.60
2023-01-28T04:05:37.595Z,4.80
2023-01-28T04:06:37.604Z,5.30
2023-01-28T04:07:37.578Z,5.20
2023-01-28T04:08:37.575Z,5.00
2023-01-28T04:09:37.551Z,4.80
2023-01-28T04:10:37.540Z,5.20
2023-01-28T04:11:37.521Z,5.20
2023-01-28T04:12:37.522Z,4.90
2023-01-28T04:13:37.512Z,5.40
2023-01-28T04:14:37.504Z,5.30
2023-01-28T04:15:37.463Z,5.40
2023-01-28T04:16:37.481Z,5.30
2023-01-28T04:17:37.423Z,5.50
2023-01-28T04:18:37.437Z,5.30
2023-01-28T04:19:37.495Z,5.20
2023-01-28T04:20:37.396Z,4.80
2023-01-28T04:21:37.367Z,5.40
2023-01-28T04:22:37.384Z,5.30
2023-01-28T04:23:37.361Z,5.30
2023-01-28T04:24:37.371Z,5.90
2023-01-28T04:25:37.316Z,6.00
2023-01-28T04:26:37.355Z,5.70
2023-01-28T04:27:37.319Z,5.70
2023-01-28T04:28:37.315Z,5.40
2023-01-28T04:29:37.268Z,5.30
2023-01-28T04:30:37.344Z,5.90
2023-01-28T04:31:37.256Z,5.60
2023-01-28T04:32:37.269Z,5.70
2023-01-28T04:33:37.226Z,5.50
2023-01-28T04:34:37.229Z,5.70
2023-01-28T04:35:37.248Z,5.60
2023-01-28T04:36:37.197Z,5.30
2023-01-28T04:37:37.191Z,5.90
2023-01-28T04:38:37.205Z,6.20
2023-01-28T04:39:37.143Z,5.40
2023-01-28T04:40:37.145Z,6.00
2023-01-28T04:41:37.132Z,5.80
2023-01-28T04:42:37.119Z,6.10
2023-01-28T04:43:37.084Z,5.50
2023-01-28T04:44:37.090Z,5.30
2023-01-28T04:45:37.087Z,4.90
2023-01-28T04:46:37.158Z,6.30
2023-01-28T04:47:37.024Z,7.00
2023-01-28T04:48:37.063Z,6.70
2023-01-28T04:49:37.010Z,5.60
2023-01-28T04:50:37.029Z,5.80
2023-01-28T04:51:36.987Z,5.20
2023-01-28T04:52:37.000Z,5.30
2023-01-28T04:53:36.974Z,5.90
2023-01-28T04:54:36.977Z,5.60
2023-01-28T04:55:37.016Z,5.00
2023-01-28T04:56:36.956Z,5.10
2023-01-28T04:57:36.900Z,5.20
2023-01-28T04:58:36.935Z,4.70
2023-01-28T04:59:36.881Z,4.80
2023-01-28T05:00:36.917Z,4.90
2023-01-28T05:01:36.852Z,4.60
2023-01-28T05:02:36.862Z,5.30
2023-01-28T05:03:36.843Z,4.60
2023-01-28T05:04:36.835Z,4.60
2023-01-28T05:05:36.805Z,4.50
2023-01-28T05:06:36.815Z,4.80
2023-01-28T05:07:36.795Z,5.10
2023-01-28T05:08:36.780Z,4.70
2023-01-28T05:09:36.745Z,5.20
2023-01-28T05:10:36.769Z,4.60
2023-01-28T05:11:38.998Z,4.50
2023-01-28T05:12:36.741Z,4.60
2023-01-28T05:13:36.690Z,4.70
2023-01-28T05:14:36.695Z,4.90
2023-01-28T05:15:36.659Z,4.70
2023-01-28T05:16:36.707Z,5.00
2023-01-28T05:17:36.669Z,5.40
2023-01-28T05:18:36.658Z,4.90
2023-01-28T05:19:36.649Z,4.90
2023-01-28T05:20:36.639Z,4.80
2023-01-28T05:21:36.614Z,4.70
2023-01-28T05:22:36.596Z,4.90
2023-01-28T05:23:36.561Z,4.90
2023-01-28T05:24:36.565Z,5.00
2023-01-28T05:25:36.552Z,5.50
2023-01-28T05:26:36.573Z,4.70
2023-01-28T05:27:36.509Z,4.60
2023-01-28T05:28:36.534Z,4.50
2023-01-28T05:29:36.490Z,5.20
2023-01-28T05:30:36.527Z,4.50
2023-01-28T05:31:36.458Z,5.10
2023-01-28T05:32:36.475Z,4.80
2023-01-28T05:33:36.428Z,4.40
2023-01-28T05:34:36.446Z,4.20
2023-01-28T05:35:36.729Z,5.00
2023-01-28T05:36:36.412Z,4.70
2023-01-28T05:37:36.420Z,5.00
2023-01-28T05:38:36.392Z,4.80
2023-01-28T05:39:36.351Z,4.50
2023-01-28T05:40:36.370Z,4.40
2023-01-28T05:41:36.333Z,4.30
2023-01-28T05:42:36.378Z,4.30
2023-01-28T05:43:36.293Z,4.50
2023-01-28T05:44:36.341Z,4.10
2023-01-28T05:45:36.329Z,4.40
2023-01-28T05:46:36.318Z,4.60
2023-01-28T05:47:36.249Z,4.60
2023-01-28T05:48:36.259Z,4.30
2023-01-28T05:49:36.224Z,4.50
2023-01-28T05:50:36.229Z,5.00
2023-01-28T05:51:36.199Z,4.20
2023-01-28T05:52:36.223Z,5.00
2023-01-28T05:53:36.176Z,4.90
2023-01-28T05:54:36.183Z,5.60
2023-01-28T05:55:36.177Z,4.60
2023-01-28T05:56:36.175Z,4.80
2023-01-28T05:57:36.139Z,4.70
2023-01-28T05:58:36.157Z,4.20
2023-01-28T05:59:36.089Z,5.50
2023-01-28T06:00:36.112Z,5.30
2023-01-28T06:01:36.068Z,5.60
2023-01-28T06:02:36.144Z,6.00
2023-01-28T06:03:36.040Z,5.70
2023-01-28T06:04:36.072Z,5.40
2023-01-28T06:05:36.105Z,5.30
2023-01-28T06:06:36.021Z,6.00
2023-01-28T06:07:35.986Z,5.80
2023-01-28T06:08:36.016Z,5.00
2023-01-28T06:09:35.962Z,5.70
2023-01-28T06:10:35.980Z,5.30
2023-01-28T06:11:35.928Z,4.90
2023-01-28T06:12:35.988Z,5.20
2023-01-28T06:13:35.904Z,4.90
2023-01-28T06:14:35.914Z,5.10
2023-01-28T06:15:35.950Z,4.90
2023-01-28T06:16:35.900Z,5.40
2023-01-28T06:17:35.898Z,5.80
2023-01-28T06:18:35.864Z,5.20
2023-01-28T06:19:35.836Z,5.00
2023-01-28T06:20:35.870Z,5.30
2023-01-28T06:21:35.802Z,5.30
2023-01-28T06:22:35.836Z,5.40
2023-01-28T06:23:35.782Z,5.40
2023-01-28T06:24:35.804Z,5.30
2023-01-28T06:25:35.767Z,5.00
2023-01-28T06:26:35.783Z,5.30
2023-01-28T06:27:35.738Z,4.90
2023-01-28T06:28:35.735Z,5.30
2023-01-28T06:29:35.702Z,5.10
2023-01-28T06:30:35.784Z,5.30
2023-01-28T06:31:35.677Z,5.30
2023-01-28T06:32:35.687Z,5.00
2023-01-28T06:33:35.642Z,4.80
2023-01-28T06:34:35.677Z,5.00
2023-01-28T06:35:35.628Z,5.20
2023-01-28T06:36:35.641Z,4.60
2023-01-28T06:37:35.597Z,4.80
2023-01-28T06:38:35.635Z,5.30
2023-01-28T06:39:35.560Z,5.10
2023-01-28T06:40:35.570Z,4.90
2023-01-28T06:41:35.556Z,4.70
2023-01-28T06:42:35.547Z,4.70
2023-01-28T06:43:35.520Z,4.90
2023-01-28T06:44:35.541Z,5.10
2023-01-28T06:45:35.484Z,4.70
2023-01-28T06:46:35.599Z,4.80
2023-01-28T06:47:35.498Z,4.70
2023-01-28T06:48:35.464Z,4.80
2023-01-28T06:49:35.440Z,5.00
2023-01-28T06:50:35.485Z,5.00
2023-01-28T06:51:35.401Z,4.50
2023-01-28T06:52:35.451Z,4.70
2023-01-28T06:53:35.397Z,4.80
2023-01-28T06:54:35.412Z,4.30
2023-01-28T06:55:35.369Z,4.60
2023-01-28T06:56:35.364Z,4.80
2023-01-28T06:57:35.327Z,4.80
2023-01-28T06:58:35.371Z,4.70
2023-01-28T06:59:35.337Z,5.10
2023-01-28T07:00:35.316Z,4.70
2023-01-28T07:01:35.418Z,5.00
2023-01-28T07:02:35.339Z,5.20
2023-01-28T07:03:35.267Z,4.90
2023-01-28T07:04:35.293Z,5.00
2023-01-28T07:05:35.237Z,4.90
2023-01-28T07:06:35.273Z,5.00
2023-01-28T07:07:35.212Z,4.90
2023-01-28T07:08:35.212Z,4.60
2023-01-28T07:09:35.175Z,5.30
2023-01-28T07:10:35.228Z,4.60
2023-01-28T07:11:35.152Z,4.90
2023-01-28T07:12:35.192Z,4.70
2023-01-28T07:13:35.139Z,5.40
2023-01-28T07:14:35.158Z,4.70
2023-01-28T07:15:35.098Z,5.00
2023-01-28T07:16:35.143Z,5.40
2023-01-28T07:17:35.068Z,4.90
2023-01-28T07:18:35.092Z,5.00
2023-01-28T07:19:35.050Z,5.20
2023-01-28T07:20:35.082Z,5.00
2023-01-28T07:21:35.037Z,5.30
2023-01-28T07:22:35.022Z,5.30
2023-01-28T07:23:34.994Z,4.90
2023-01-28T07:24:35.022Z,5.00
2023-01-28T07:25:34.997Z,5.20
2023-01-28T07:26:35.004Z,4.90
2023-01-28T07:27:34.947Z,4.80
2023-01-28T07:28:34.926Z,5.10
2023-01-28T07:29:34.953Z,4.90
2023-01-28T07:30:34.930Z,4.90
2023-01-28T07:31:34.973Z,4.70
2023-01-28T07:32:34.882Z,5.00
2023-01-28T07:33:34.890Z,4.90
2023-01-28T07:34:34.867Z,4.90
2023-01-28T07:35:34.864Z,4.90
2023-01-28T07:36:34.846Z,5.20
2023-01-28T07:37:34.823Z,5.10
2023-01-28T07:38:34.791Z,4.50
2023-01-28T07:39:34.812Z,4.80
2023-01-28T07:40:34.767Z,5.10
2023-01-28T07:41:34.808Z,5.10
2023-01-28T07:42:34.776Z,5.10
2023-01-28T07:43:34.755Z,5.00
2023-01-28T07:44:34.704Z,4.80
2023-01-28T07:45:34.745Z,5.20
2023-01-28T07:46:34.697Z,4.90
2023-01-28T07:47:34.784Z,5.10
2023-01-28T07:48:34.679Z,5.20
2023-01-28T07:49:34.685Z,5.60
2023-01-28T07:50:34.650Z,5.20
2023-01-28T07:51:34.654Z,4.90
2023-01-28T07:52:34.606Z,5.50
2023-01-28T07:53:34.657Z,5.50
2023-01-28T07:54:34.586Z,5.30
2023-01-28T07:55:34.606Z,5.40
2023-01-28T07:56:34.576Z,5.40
2023-01-28T07:57:34.586Z,5.50
2023-01-28T07:58:34.580Z,5.20
2023-01-28T07:59:34.542Z,4.70
2023-01-28T08:00:34.519Z,5.00
2023-01-28T08:01:34.530Z,4.80
2023-01-28T08:02:34.489Z,5.10
2023-01-28T08:03:34.500Z,5.10
2023-01-28T08:04:34.581Z,5.30
2023-01-28T08:05:34.460Z,5.00
2023-01-28T08:06:34.457Z,5.10
2023-01-28T08:07:34.435Z,5.20
2023-01-28T08:08:34.401Z,5.00
2023-01-28T08:09:34.410Z,5.40
2023-01-28T08:10:34.389Z,5.80
2023-01-28T08:11:34.416Z,5.30
2023-01-28T08:12:34.360Z,5.40
2023-01-28T08:13:34.367Z,5.60
2023-01-28T08:14:34.321Z,5.90
2023-01-28T08:15:35.415Z,5.70
2023-01-28T08:16:34.331Z,5.80
2023-01-28T08:17:34.338Z,6.20
2023-01-28T08:18:34.280Z,6.20
2023-01-28T08:19:34.306Z,5.90
2023-01-28T08:20:34.261Z,6.30
2023-01-28T08:21:34.266Z,6.40
2023-01-28T08:22:34.235Z,6.30
2023-01-28T08:23:34.241Z,6.20
2023-01-28T08:24:34.217Z,6.50
2023-01-28T08:25:34.216Z,6.40
2023-01-28T08:26:34.199Z,6.50
2023-01-28T08:27:34.215Z,7.20
2023-01-28T08:28:34.148Z,6.40
2023-01-28T08:29:34.151Z,6.50
2023-01-28T08:30:34.203Z,6.80
2023-01-28T08:31:34.188Z,6.50
2023-01-28T08:32:34.113Z,7.00
2023-01-28T08:33:34.120Z,6.80
2023-01-28T08:34:34.086Z,6.60
2023-01-28T08:35:34.070Z,7.10
2023-01-28T08:36:34.053Z,6.90
2023-01-28T08:37:34.043Z,7.10
2023-01-28T08:38:34.029Z,6.70
2023-01-28T08:39:34.037Z,7.30
2023-01-28T08:40:34.027Z,6.90
2023-01-28T08:41:34.033Z,6.80
2023-01-28T08:42:33.960Z,6.80
2023-01-28T08:43:33.964Z,6.80
2023-01-28T08:44:33.927Z,7.30
2023-01-28T08:45:33.979Z,7.20
2023-01-28T08:46:33.987Z,7.60
2023-01-28T08:47:33.908Z,6.90
2023-01-28T08:48:33.864Z,7.00
2023-01-28T08:49:33.910Z,7.20
2023-01-28T08:50:33.877Z,6.40
2023-01-28T08:51:34.693Z,7.20
2023-01-28T08:52:33.838Z,7.20
2023-01-28T08:53:33.843Z,7.20
2023-01-28T08:54:33.831Z,7.00
2023-01-28T08:55:33.817Z,6.90
2023-01-28T08:56:33.795Z,7.10
2023-01-28T08:57:33.805Z,7.00
2023-01-28T08:58:33.763Z,7.60
2023-01-28T08:59:33.748Z,7.40
2023-01-28T09:00:33.749Z,7.50
2023-01-28T09:01:33.754Z,7.40
2023-01-28T09:02:33.699Z,7.60
2023-01-28T09:03:33.742Z,7.00
2023-01-28T09:04:33.694Z,7.30
2023-01-28T09:05:33.691Z,6.70
2023-01-28T09:06:33.658Z,6.90
2023-01-28T09:07:33.737Z,6.90
2023-01-28T09:08:33.641Z,7.50
2023-01-28T09:09:33.614Z,6.80
2023-01-28T09:10:34.268Z,6.80
2023-01-28T09:11:33.659Z,6.70
2023-01-28T09:12:36.171Z,6.20
2023-01-28T09:13:35.696Z,6.40
2023-01-28T09:14:33.556Z,7.10
2023-01-28T09:15:33.558Z,7.00
2023-01-28T09:16:33.534Z,6.90
2023-01-28T09:17:33.551Z,7.00
2023-01-28T09:18:33.477Z,6.80
2023-01-28T09:19:33.496Z,7.00
2023-01-28T09:20:33.462Z,7.20
2023-01-28T09:21:33.503Z,6.30
2023-01-28T09:22:33.464Z,6.20
2023-01-28T09:23:33.438Z,6.40
2023-01-28T09:24:33.437Z,6.50
2023-01-28T09:25:33.414Z,5.60
2023-01-28T09:26:33.375Z,5.90
2023-01-28T09:27:33.484Z,6.70
2023-01-28T09:28:33.367Z,5.90
2023-01-28T09:29:33.373Z,6.20
2023-01-28T09:30:35.394Z,6.30
2023-01-28T09:31:33.375Z,6.20
2023-01-28T09:32:33.308Z,6.00
2023-01-28T09:33:33.648Z,5.80
2023-01-28T09:34:33.293Z,6.00
2023-01-28T09:35:33.270Z,6.20
2023-01-28T09:36:33.335Z,5.90
2023-01-28T09:37:33.269Z,5.70
2023-01-28T09:38:33.226Z,5.70
2023-01-28T09:39:33.227Z,5.90
2023-01-28T09:40:33.211Z,6.00
2023-01-28T09:41:33.221Z,5.70
2023-01-28T09:42:33.176Z,6.10
2023-01-28T09:43:33.195Z,5.70
2023-01-28T09:44:33.143Z,6.40
2023-01-28T09:45:33.159Z,6.30
2023-01-28T09:46:33.171Z,6.30
2023-01-28T09:47:33.144Z,6.40
2023-01-28T09:48:33.108Z,5.90
2023-01-28T09:49:33.130Z,5.90
2023-01-28T09:50:33.083Z,6.20
2023-01-28T09:51:33.089Z,6.80
2023-01-28T09:52:33.067Z,6.50
2023-01-28T09:53:33.053Z,6.40
2023-01-28T09:54:33.027Z,6.30
2023-01-28T09:55:33.051Z,6.70
2023-01-28T09:56:32.997Z,6.60
2023-01-28T09:57:33.046Z,6.20
2023-01-28T09:58:32.959Z,6.60
2023-01-28T09:59:33.015Z,6.30
2023-01-28T10:00:33.026Z,6.20
2023-01-28T10:01:32.959Z,6.60
2023-01-28T10:02:32.945Z,6.80
2023-01-28T10:03:32.948Z,6.20
2023-01-28T10:04:32.904Z,6.10
2023-01-28T10:05:32.906Z,6.90
2023-01-28T10:06:32.955Z,6.50
2023-01-28T10:07:32.882Z,6.50
2023-01-28T10:08:32.861Z,6.20
2023-01-28T10:09:32.877Z,6.40
2023-01-28T10:10:32.824Z,6.30
2023-01-28T10:11:32.839Z,6.20
2023-01-28T10:12:32.769Z,6.50
2023-01-28T10:13:32.788Z,6.00
2023-01-28T10:14:32.746Z,5.70
2023-01-28T10:15:32.760Z,5.90
2023-01-28T10:16:32.745Z,6.00
2023-01-28T10:17:32.871Z,6.10
2023-01-28T10:18:32.714Z,6.10
2023-01-28T10:19:32.726Z,6.10
2023-01-28T10:20:32.668Z,6.00
2023-01-28T10:21:32.684Z,6.40
2023-01-28T10:22:32.672Z,6.20
2023-01-28T10:23:32.669Z,6.10
2023-01-28T10:24:32.671Z,6.40
2023-01-28T10:25:32.648Z,6.20
2023-01-28T10:26:32.692Z,6.40
2023-01-28T10:27:32.628Z,6.20
2023-01-28T10:28:32.579Z,5.80
2023-01-28T10:29:32.594Z,5.90
2023-01-28T10:30:32.551Z,5.80
2023-01-28T10:31:32.633Z,5.90
2023-01-28T10:32:32.516Z,6.00
2023-01-28T10:33:32.573Z,5.30
2023-01-28T10:34:32.480Z,5.60
2023-01-28T10:35:32.691Z,5.60
2023-01-28T10:36:32.457Z,5.40
2023-01-28T10:37:32.502Z,5.40
2023-01-28T10:38:32.435Z,5.70
2023-01-28T10:39:32.452Z,5.70
2023-01-28T10:40:32.432Z,5.60
2023-01-28T10:41:32.431Z,5.40
2023-01-28T10:42:32.400Z,5.50
2023-01-28T10:43:32.483Z,5.90
2023-01-28T10:44:32.443Z,5.80
2023-01-28T10:45:32.465Z,6.30
2023-01-28T10:46:32.353Z,5.60
2023-01-28T10:47:32.357Z,5.60
2023-01-28T10:48:32.334Z,5.30
2023-01-28T10:49:32.325Z,6.30
2023-01-28T10:50:32.307Z,5.70
2023-01-28T10:51:32.299Z,6.00
2023-01-28T10:52:32.270Z,6.00
2023-01-28T10:53:32.581Z,5.60
2023-01-28T10:54:32.235Z,6.20
2023-01-28T10:55:32.243Z,5.40
2023-01-28T10:56:32.241Z,5.90
2023-01-28T10:57:32.205Z,6.40
2023-01-28T10:58:32.172Z,5.50
2023-01-28T10:59:32.185Z,6.90
2023-01-28T11:00:32.149Z,5.70
2023-01-28T11:01:32.185Z,6.00
2023-01-28T11:02:32.636Z,5.50
2023-01-28T11:03:32.127Z,6.90
2023-01-28T11:04:32.102Z,6.80
2023-01-28T11:05:32.149Z,6.30
2023-01-28T11:06:32.106Z,6.50
2023-01-28T11:07:32.123Z,6.90
2023-01-28T11:08:32.092Z,6.60
2023-01-28T11:09:32.093Z,6.50
2023-01-28T11:10:32.542Z,6.60
2023-01-28T11:11:32.025Z,7.30
2023-01-28T11:12:32.000Z,6.50
2023-01-28T11:13:32.005Z,6.20
2023-01-28T11:14:31.969Z,6.20
2023-01-28T11:15:31.984Z,6.30
2023-01-28T11:16:31.999Z,6.70
2023-01-28T11:17:32.013Z,6.80
2023-01-28T11:18:31.914Z,6.30
2023-01-28T11:19:31.945Z,7.00
2023-01-28T11:20:31.901Z,6.30
2023-01-28T11:21:31.941Z,7.10
2023-01-28T11:22:31.869Z,7.30
2023-01-28T11:23:31.904Z,6.90
2023-01-28T11:24:31.905Z,7.20
2023-01-28T11:25:31.849Z,6.60
2023-01-28T11:26:31.829Z,6.40
2023-01-28T11:27:31.830Z,7.30
2023-01-28T11:28:32.851Z,6.70
2023-01-28T11:29:31.833Z,6.60
2023-01-28T11:30:31.749Z,6.60
2023-01-28T11:31:31.824Z,6.60
2023-01-28T11:32:31.734Z,7.00
2023-01-28T11:33:31.744Z,6.70
2023-01-28T11:34:31.717Z,6.30
2023-01-28T11:35:31.726Z,6.70
2023-01-28T11:36:31.696Z,6.40
2023-01-28T11:37:31.938Z,6.40
2023-01-28T11:38:31.695Z,6.50
2023-01-28T11:39:31.692Z,6.80
2023-01-28T11:40:31.623Z,6.30
2023-01-28T11:41:31.685Z,6.20
2023-01-28T11:42:31.610Z,6.10
2023-01-28T11:43:31.612Z,6.30
2023-01-28T11:44:31.610Z,6.30
2023-01-28T11:45:31.631Z,6.10
2023-01-28T11:46:32.888Z,6.10
2023-01-28T11:47:31.540Z,6.30
2023-01-28T11:48:31.542Z,6.40
2023-01-28T11:49:31.528Z,6.40
2023-01-28T11:50:31.537Z,6.40
2023-01-28T11:51:31.496Z,6.60
2023-01-28T11:52:48.648Z,6.60
2023-01-28T11:53:31.481Z,6.10
2023-01-28T11:54:31.505Z,5.80
2023-01-28T11:55:31.443Z,5.40
2023-01-28T11:56:31.470Z,5.70
2023-01-28T11:57:31.428Z,6.30
2023-01-28T11:58:31.424Z,5.50
2023-01-28T11:59:31.383Z,5.50
2023-01-28T12:00:31.391Z,6.40
2023-01-28T12:01:31.365Z,5.80
2023-01-28T12:02:31.417Z,5.80
2023-01-28T12:03:31.342Z,5.80
2023-01-28T12:04:31.457Z,5.80
2023-01-28T12:05:31.304Z,6.00
2023-01-28T12:06:31.308Z,6.00
2023-01-28T12:07:31.304Z,5.80
2023-01-28T12:08:31.278Z,5.30
2023-01-28T12:09:31.264Z,5.40
2023-01-28T12:10:31.250Z,5.10
2023-01-28T12:11:31.234Z,5.20
2023-01-28T12:12:31.234Z,5.20
2023-01-28T12:13:31.280Z,4.90
2023-01-28T12:14:31.215Z,5.30
2023-01-28T12:15:31.179Z,5.20
2023-01-28T12:16:31.192Z,5.50
2023-01-28T12:17:31.149Z,5.40
2023-01-28T12:18:31.182Z,5.30
2023-01-28T12:19:31.123Z,5.70
2023-01-28T12:20:31.138Z,5.10
2023-01-28T12:21:31.078Z,4.90
2023-01-28T12:22:31.101Z,4.90
2023-01-28T12:23:31.113Z,4.90
2023-01-28T12:24:31.189Z,5.00
2023-01-28T12:25:31.044Z,5.70
2023-01-28T12:26:31.049Z,5.10
2023-01-28T12:27:31.002Z,5.10
2023-01-28T12:28:31.034Z,4.90
2023-01-28T12:29:31.009Z,5.00
2023-01-28T12:30:30.999Z,5.70
2023-01-28T12:31:31.064Z,5.20
2023-01-28T12:32:30.982Z,5.10
2023-01-28T12:33:31.006Z,5.30
2023-01-28T12:34:30.970Z,5.30
2023-01-28T12:35:30.951Z,4.80
2023-01-28T12:36:30.931Z,5.70
2023-01-28T12:37:30.872Z,5.40
2023-01-28T12:38:30.891Z,5.10
2023-01-28T12:39:31.098Z,5.10
2023-01-28T12:40:33.527Z,5.70
2023-01-28T12:41:30.843Z,5.80
2023-01-28T12:42:30.851Z,5.90
2023-01-28T12:43:30.813Z,5.80
2023-01-28T12:44:30.828Z,6.00
2023-01-28T12:45:30.827Z,6.20
2023-01-28T12:46:30.812Z,5.80
2023-01-28T12:47:30.742Z,5.80
2023-01-28T12:48:30.871Z,5.40
2023-01-28T12:49:30.732Z,5.90
2023-01-28T12:50:30.741Z,6.10
2023-01-28T12:51:30.707Z,5.50
2023-01-28T12:52:30.733Z,6.00
2023-01-28T12:53:30.686Z,5.80
2023-01-28T12:54:30.682Z,5.70
2023-01-28T12:55:30.700Z,5.90
2023-01-28T12:56:30.865Z,5.70
2023-01-28T12:57:30.712Z,5.80
2023-01-28T12:58:30.656Z,6.30
2023-01-28T12:59:30.616Z,5.40
2023-01-28T13:00:30.615Z,5.80
2023-01-28T13:01:30.575Z,5.90
2023-01-28T13:02:30.619Z,5.20
2023-01-28T13:03:30.542Z,5.60
2023-01-28T13:04:30.549Z,5.40
2023-01-28T13:05:30.543Z,5.70
2023-01-28T13:06:30.756Z,5.80
2023-01-28T13:07:30.494Z,5.80
2023-01-28T13:08:30.552Z,5.80
2023-01-28T13:09:30.459Z,5.70
2023-01-28T13:10:30.473Z,5.30
2023-01-28T13:11:30.455Z,5.20
2023-01-28T13:12:30.455Z,5.40
2023-01-28T13:13:30.443Z,5.40
2023-01-28T13:14:30.453Z,5.60
2023-01-28T13:15:30.448Z,5.50
2023-01-28T13:16:37.288Z,5.10
2023-01-28T13:17:30.394Z,4.90
2023-01-28T13:18:30.381Z,5.40
2023-01-28T13:19:30.354Z,5.20
2023-01-28T13:20:30.357Z,4.80
2023-01-28T13:21:32.482Z,4.80
2023-01-28T13:22:30.311Z,5.20
2023-01-28T13:23:30.283Z,4.80
2023-01-28T13:24:30.379Z,4.70
2023-01-28T13:25:30.272Z,4.30
2023-01-28T13:26:30.276Z,4.10
2023-01-28T13:27:30.236Z,4.00
2023-01-28T13:28:30.269Z,4.30
2023-01-28T13:29:30.224Z,4.40
2023-01-28T13:30:30.238Z,4.10
2023-01-28T13:31:30.196Z,4.10
2023-01-28T13:32:30.302Z,3.70
2023-01-28T13:33:30.307Z,4.00
2023-01-28T13:34:30.157Z,4.40
2023-01-28T13:35:30.150Z,4.20
2023-01-28T13:36:30.145Z,4.50
2023-01-28T13:37:30.102Z,4.50
2023-01-28T13:38:30.129Z,4.10
2023-01-28T13:39:30.091Z,4.40
2023-01-28T13:40:30.119Z,4.70
2023-01-28T13:41:30.341Z,4.50
2023-01-28T13:42:30.171Z,4.50
2023-01-28T13:43:30.031Z,5.20
2023-01-28T13:44:30.043Z,4.80
2023-01-28T13:45:30.001Z,4.90
2023-01-28T13:46:30.054Z,5.00
2023-01-28T13:47:30.000Z,4.90
2023-01-28T13:48:29.979Z,4.30
2023-01-28T13:49:29.940Z,4.10
2023-01-28T13:50:30.085Z,4.20
2023-01-28T13:51:29.942Z,4.30
2023-01-28T13:52:29.932Z,3.80
2023-01-28T13:53:29.897Z,4.20
2023-01-28T13:54:29.897Z,4.40
2023-01-28T13:55:43.504Z,3.70
2023-01-28T13:56:29.882Z,3.70
2023-01-28T13:57:29.853Z,3.70
2023-01-28T13:58:29.879Z,3.70
2023-01-28T13:59:29.809Z,3.50
2023-01-28T14:00:29.832Z,3.70
2023-01-28T14:01:29.853Z,3.70
2023-01-28T14:02:29.794Z,3.60
2023-01-28T14:03:29.794Z,4.40
2023-01-28T14:04:29.827Z,4.00
2023-01-28T14:05:29.753Z,4.10
2023-01-28T14:06:29.712Z,4.40
2023-01-28T14:07:29.748Z,4.00
2023-01-28T14:08:30.081Z,3.70
2023-01-28T14:09:29.841Z,3.50
2023-01-28T14:10:29.811Z,4.10
2023-01-28T14:11:29.688Z,3.90
2023-01-28T14:12:29.656Z,4.20
2023-01-28T14:13:29.700Z,4.20
2023-01-28T14:14:29.605Z,4.30
2023-01-28T14:15:29.717Z,4.20
2023-01-28T14:16:29.587Z,4.50
2023-01-28T14:17:29.607Z,4.00
2023-01-28T14:18:29.584Z,4.40
2023-01-28T14:19:29.607Z,4.40
2023-01-28T14:20:29.530Z,3.60
2023-01-28T14:21:29.576Z,3.70
2023-01-28T14:22:29.518Z,3.90
2023-01-28T14:23:29.654Z,3.80
2023-01-28T14:24:29.488Z,3.70
2023-01-28T14:25:29.556Z,3.80
2023-01-28T14:26:29.519Z,4.00
2023-01-28T14:27:29.466Z,4.10
2023-01-28T14:28:29.459Z,3.70
2023-01-28T14:29:29.484Z,4.10
2023-01-28T14:30:29.391Z,4.10
2023-01-28T14:31:29.524Z,4.20
2023-01-28T14:32:29.409Z,4.50
2023-01-28T14:33:29.403Z,3.70
2023-01-28T14:34:29.366Z,3.90
2023-01-28T14:35:29.437Z,3.50
2023-01-28T14:36:29.356Z,3.50
2023-01-28T14:37:29.995Z,3.30
2023-01-28T14:38:29.299Z,3.70
2023-01-28T14:39:29.323Z,3.80
2023-01-28T14:40:29.302Z,4.20
2023-01-28T14:41:29.286Z,3.90
2023-01-28T14:42:29.287Z,3.50
2023-01-28T14:43:29.262Z,3.70
2023-01-28T14:44:29.263Z,3.70
2023-01-28T14:45:29.225Z,4.10
2023-01-28T14:46:29.278Z,4.40
2023-01-28T14:47:29.247Z,3.50
2023-01-28T14:48:29.218Z,3.50
2023-01-28T14:49:29.178Z,4.10
2023-01-28T14:50:29.140Z,4.30
2023-01-28T14:51:30.431Z,3.80
2023-01-28T14:52:29.123Z,3.70
2023-01-28T14:53:29.157Z,3.90
2023-01-28T14:54:29.124Z,3.40
2023-01-28T14:55:29.096Z,3.90
2023-01-28T14:56:29.053Z,3.60
2023-01-28T14:57:29.092Z,4.00
2023-01-28T14:58:29.068Z,4.10
2023-01-28T14:59:29.048Z,4.20
2023-01-28T15:00:29.010Z,4.20
2023-01-28T15:01:29.061Z,4.30
2023-01-28T15:02:29.127Z,4.20
2023-01-28T15:03:29.065Z,4.60
2023-01-28T15:04:29.015Z,4.30
2023-01-28T15:05:28.981Z,3.80
2023-01-28T15:06:28.956Z,3.60
2023-01-28T15:07:28.960Z,3.30
2023-01-28T15:08:28.916Z,3.20
2023-01-28T15:09:28.924Z,3.40
2023-01-28T15:10:28.901Z,3.10
2023-01-28T15:11:29.079Z,3.20
2023-01-28T15:12:28.892Z,3.50
2023-01-28T15:13:28.859Z,3.50
2023-01-28T15:14:28.835Z,3.30
2023-01-28T15:15:28.843Z,3.90
2023-01-28T15:16:28.790Z,4.60
2023-01-28T15:17:28.857Z,4.90
2023-01-28T15:18:28.774Z,4.90
2023-01-28T15:19:28.778Z,5.40
2023-01-28T15:20:28.762Z,5.40
2023-01-28T15:21:28.771Z,4.90
2023-01-28T15:22:28.763Z,5.50
2023-01-28T15:23:28.731Z,5.10